Time;durP1;ratioP1;P1;durP2;ratioP2;P2;SDS_P1;SDS_P2;PMS_P1;PMS_P2;Temp;Humidity;BMP_temperature;BMP_pressure;BME280_temperature;BME280_humidity;BME280_pressure;Samples;Min_cycle;Max_cycle;Signal;HPM_P1;HPM_P2
2024/02/21 00:00:05;;;;;;;33.50;12.48;;;10.30;50.50;;;;;;5053179;28;20733;-74
2024/02/21 00:02:31;;;;;;;36.13;13.70;;;10.20;51.60;;;;;;5053733;28;20464;-73
2024/02/21 00:04:56;;;;;;;34.17;12.67;;;10.30;50.70;;;;;;5052810;28;20895;-73
2024/02/21 00:07:22;;;;;;;35.97;13.80;;;10.30;50.60;;;;;;5054095;28;20767;-72
2024/02/21 00:09:48;;;;;;;32.75;12.43;;;10.20;50.90;;;;;;5054027;28;20806;-72
2024/02/21 00:12:16;;;;;;;31.47;12.77;;;10.20;51.30;;;;;;5053302;28;20377;-73
2024/02/21 00:14:42;;;;;;;29.75;12.20;;;10.20;51.10;;;;;;5053323;28;20392;-72
2024/02/21 00:17:08;;;;;;;30.80;13.03;;;10.30;51.00;;;;;;5055604;28;20409;-76
2024/02/21 00:19:34;;;;;;;34.77;12.97;;;10.30;50.90;;;;;;5053722;28;20715;-72
2024/02/21 00:21:59;;;;;;;33.22;12.60;;;10.30;50.90;;;;;;5067264;28;20944;-74
2024/02/21 00:24:25;;;;;;;37.50;12.83;;;10.30;51.10;;;;;;5051950;28;20397;-74
2024/02/21 00:26:50;;;;;;;30.97;12.70;;;10.30;51.10;;;;;;5052662;28;20784;-73
2024/02/21 00:29:16;;;;;;;34.67;13.03;;;10.30;51.10;;;;;;5052432;28;20385;-72
2024/02/21 00:31:41;;;;;;;34.30;12.50;;;10.30;51.50;;;;;;5052449;28;20725;-73
2024/02/21 00:34:07;;;;;;;36.08;12.70;;;10.20;51.60;;;;;;5052350;28;20388;-74
2024/02/21 00:36:33;;;;;;;37.53;12.65;;;10.20;52.10;;;;;;5051491;28;20402;-72
2024/02/21 00:38:58;;;;;;;33.40;13.07;;;10.20;51.80;;;;;;5052418;28;20393;-73
2024/02/21 00:41:24;;;;;;;41.47;13.35;;;10.20;52.10;;;;;;5052610;28;20382;-74
2024/02/21 00:43:50;;;;;;;26.50;12.30;;;10.20;52.70;;;;;;5052607;28;20515;-73
2024/02/21 00:46:15;;;;;;;35.00;13.55;;;10.20;52.50;;;;;;5052002;28;20416;-72
2024/02/21 00:48:41;;;;;;;31.20;12.35;;;10.10;53.10;;;;;;5051962;28;20794;-73
2024/02/21 00:51:06;;;;;;;30.83;12.07;;;10.30;52.70;;;;;;5053503;28;20784;-71
2024/02/21 00:53:32;;;;;;;33.47;12.43;;;10.20;52.60;;;;;;5058686;28;20385;-73
2024/02/21 00:55:57;;;;;;;33.83;13.00;;;10.10;53.30;;;;;;5061988;28;20439;-73
2024/02/21 00:58:23;;;;;;;38.43;13.60;;;10.10;53.70;;;;;;5061974;28;20385;-72
2024/02/21 01:00:49;;;;;;;35.07;13.50;;;10.10;54.40;;;;;;5060601;28;20368;-74
2024/02/21 01:03:15;;;;;;;32.27;12.70;;;10.10;53.60;;;;;;5061805;28;20382;-72
2024/02/21 01:05:40;;;;;;;37.07;13.77;;;10.20;53.70;;;;;;5059442;28;20470;-73
2024/02/21 01:08:06;;;;;;;32.63;12.53;;;10.20;53.50;;;;;;5059041;28;20384;-73
2024/02/21 01:10:32;;;;;;;35.85;13.38;;;10.20;53.50;;;;;;5056447;28;20390;-73
2024/02/21 01:12:57;;;;;;;36.15;13.68;;;10.10;54.30;;;;;;5056024;28;20393;-72
2024/02/21 01:15:23;;;;;;;29.20;13.00;;;10.10;54.20;;;;;;5055717;28;20385;-71
2024/02/21 01:17:50;;;;;;;37.40;13.03;;;10.20;53.60;;;;;;5054481;28;20840;-71
2024/02/21 01:20:16;;;;;;;32.80;13.13;;;10.20;53.70;;;;;;5054579;28;20408;-73
2024/02/21 01:22:42;;;;;;;30.73;12.15;;;10.20;53.80;;;;;;5054793;28;20393;-72
2024/02/21 01:25:08;;;;;;;38.13;13.00;;;10.10;54.20;;;;;;5054114;28;20420;-72
2024/02/21 01:27:33;;;;;;;32.70;13.20;;;10.10;54.30;;;;;;5054500;28;20461;-72
2024/02/21 01:29:59;;;;;;;30.23;11.80;;;10.30;53.80;;;;;;5054252;28;20468;-72
2024/02/21 01:32:25;;;;;;;38.00;13.40;;;10.20;53.80;;;;;;5054181;28;20420;-73
2024/02/21 01:34:51;;;;;;;33.50;12.63;;;10.20;53.80;;;;;;5054416;28;20382;-73
2024/02/21 01:37:16;;;;;;;32.00;12.32;;;10.20;53.80;;;;;;5053925;28;20405;-72
2024/02/21 01:39:42;;;;;;;42.70;12.47;;;10.20;54.30;;;;;;5070083;28;20401;-72
2024/02/21 01:42:09;;;;;;;33.67;12.53;;;10.20;54.30;;;;;;5054674;28;20384;-71
2024/02/21 01:44:34;;;;;;;36.67;12.33;;;10.20;53.40;;;;;;5054892;28;20464;-72
2024/02/21 01:47:00;;;;;;;34.87;12.50;;;10.20;53.60;;;;;;5054154;28;20385;-72
2024/02/21 01:49:26;;;;;;;27.90;11.88;;;10.20;53.80;;;;;;5054900;28;20390;-72
2024/02/21 01:51:53;;;;;;;30.98;11.98;;;10.20;54.00;;;;;;5054135;28;20745;-73
2024/02/21 01:54:19;;;;;;;28.85;11.98;;;10.20;54.10;;;;;;5054782;28;20413;-73
2024/02/21 01:56:46;;;;;;;31.70;13.00;;;10.20;54.00;;;;;;5053618;28;20496;-72
2024/02/21 01:59:13;;;;;;;43.60;13.05;;;10.20;54.20;;;;;;5053437;28;20439;-73
2024/02/21 02:01:39;;;;;;;31.52;11.98;;;10.10;54.80;;;;;;5054193;28;20401;-73
2024/02/21 02:04:06;;;;;;;29.20;11.30;;;10.20;54.30;;;;;;5052611;28;20370;-72
2024/02/21 02:06:31;;;;;;;33.85;12.40;;;10.20;54.10;;;;;;5053747;28;20389;-73
2024/02/21 02:08:57;;;;;;;34.80;12.43;;;10.20;54.00;;;;;;5057577;28;20469;-73
2024/02/21 02:11:23;;;;;;;32.60;12.30;;;10.20;54.30;;;;;;5057257;28;20859;-71
2024/02/21 02:13:48;;;;;;;27.27;11.70;;;10.20;54.30;;;;;;5057241;28;20455;-72
2024/02/21 02:16:14;;;;;;;27.40;11.50;;;10.10;54.30;;;;;;5056849;28;20415;-71
2024/02/21 02:18:39;;;;;;;33.97;12.30;;;10.10;54.20;;;;;;5057815;28;20481;-73
2024/02/21 02:21:22;;;;;;;29.42;12.00;;;10.10;54.50;;;;;;5057450;28;20388;-72
2024/02/21 02:23:48;;;;;;;25.85;11.43;;;10.10;54.50;;;;;;5058881;22;20434;-76
2024/02/21 02:26:14;;;;;;;28.60;11.50;;;10.10;54.60;;;;;;5042600;28;20475;-76
2024/02/21 02:28:39;;;;;;;36.80;11.20;;;10.00;54.90;;;;;;5043001;28;20458;-77
2024/02/21 02:31:05;;;;;;;30.30;11.10;;;10.00;55.40;;;;;;5036957;28;20398;-78
2024/02/21 02:33:31;;;;;;;28.40;11.05;;;10.10;55.00;;;;;;5037474;28;20430;-77
2024/02/21 02:35:58;;;;;;;27.87;10.97;;;10.10;54.60;;;;;;5036675;28;20390;-77
2024/02/21 02:38:24;;;;;;;31.50;10.85;;;10.10;54.40;;;;;;5041543;28;20459;-78
2024/02/21 02:40:49;;;;;;;30.10;11.10;;;10.10;54.30;;;;;;5045353;28;20399;-77
2024/02/21 02:43:15;;;;;;;27.45;11.25;;;10.10;54.00;;;;;;5045343;28;20395;-76
2024/02/21 02:45:40;;;;;;;35.42;11.60;;;10.10;54.20;;;;;;5044625;28;20888;-75
2024/02/21 02:48:06;;;;;;;22.75;10.68;;;10.20;53.60;;;;;;5041419;28;20387;-78
2024/02/21 02:50:32;;;;;;;27.08;10.88;;;10.20;53.20;;;;;;5036323;28;20933;-77
2024/02/21 02:52:58;;;;;;;36.40;11.85;;;10.20;53.20;;;;;;5036015;28;20387;-77
2024/02/21 02:55:23;;;;;;;33.38;11.63;;;10.20;53.60;;;;;;5034314;28;20394;-76
2024/02/21 02:57:49;;;;;;;31.90;10.90;;;10.20;53.40;;;;;;5035315;28;20403;-77
2024/02/21 03:00:15;;;;;;;25.67;11.32;;;10.20;53.30;;;;;;5037899;28;20401;-78
2024/02/21 03:02:43;;;;;;;35.85;12.07;;;10.10;53.40;;;;;;5043881;28;20379;-77
2024/02/21 03:05:26;;;;;;;27.25;10.88;;;10.20;53.00;;;;;;5038956;28;20909;-77
2024/02/21 03:07:52;;;;;;;27.27;11.82;;;10.20;53.30;;;;;;5032220;28;20390;-77
2024/02/21 03:10:17;;;;;;;27.25;10.25;;;10.10;53.20;;;;;;5034416;28;21073;-78
2024/02/21 03:12:43;;;;;;;24.77;10.77;;;10.10;53.40;;;;;;5038063;28;20548;-76
2024/02/21 03:15:09;;;;;;;27.00;10.57;;;10.20;53.20;;;;;;5037710;28;20390;-77
2024/02/21 03:17:35;;;;;;;28.23;11.40;;;10.20;53.20;;;;;;5037816;28;20525;-76
2024/02/21 03:20:04;;;;;;;33.33;10.80;;;10.10;53.20;;;;;;5032688;28;20453;-76
2024/02/21 03:22:30;;;;;;;29.92;11.50;;;10.10;53.20;;;;;;5035938;28;20387;-77
2024/02/21 03:24:56;;;;;;;32.58;10.80;;;10.10;53.50;;;;;;5036658;28;20478;-77
2024/02/21 03:27:21;;;;;;;28.30;10.87;;;10.10;53.50;;;;;;5035432;28;20854;-78
2024/02/21 03:29:47;;;;;;;22.70;10.67;;;10.00;53.80;;;;;;5034467;28;20692;-75
2024/02/21 03:32:13;;;;;;;31.27;10.83;;;10.00;53.50;;;;;;5033032;28;20383;-78
2024/02/21 03:34:38;;;;;;;29.07;10.30;;;10.10;53.30;;;;;;5033333;28;20463;-77
2024/02/21 03:37:04;;;;;;;24.57;9.87;;;10.10;53.30;;;;;;5033141;28;20407;-77
2024/02/21 03:39:32;;;;;;;23.13;9.93;;;10.10;53.00;;;;;;5032598;28;20413;-77
2024/02/21 03:42:00;;;;;;;29.23;9.60;;;10.20;52.80;;;;;;5032381;28;20387;-77
2024/02/21 03:44:27;;;;;;;28.33;10.45;;;10.10;52.60;;;;;;5032301;28;20382;-77
2024/02/21 03:46:52;;;;;;;21.65;10.20;;;10.10;52.90;;;;;;5032634;28;20870;-78
2024/02/21 03:49:18;;;;;;;23.50;10.10;;;10.10;53.10;;;;;;5032514;28;20440;-76
2024/02/21 03:51:43;;;;;;;22.13;10.20;;;10.10;53.00;;;;;;5032565;28;20390;-76
2024/02/21 03:54:09;;;;;;;27.08;10.43;;;10.10;52.80;;;;;;5034208;28;20387;-78
2024/02/21 03:56:39;;;;;;;23.87;9.97;;;10.10;53.00;;;;;;5033315;28;20402;-77
2024/02/21 03:59:06;;;;;;;21.40;9.70;;;10.10;53.10;;;;;;5034595;28;20478;-77
2024/02/21 04:01:32;;;;;;;22.55;10.07;;;10.10;52.70;;;;;;5039798;28;20391;-76
2024/02/21 04:03:57;;;;;;;30.73;9.97;;;10.10;52.90;;;;;;5038292;28;20429;-77
2024/02/21 04:06:23;;;;;;;21.43;9.40;;;10.10;52.80;;;;;;5033470;28;20401;-76
2024/02/21 04:08:48;;;;;;;26.77;9.75;;;10.10;52.90;;;;;;5031224;28;20414;-77
2024/02/21 04:11:14;;;;;;;24.48;9.85;;;10.10;52.60;;;;;;5039377;28;20382;-76
2024/02/21 04:13:39;;;;;;;24.35;9.70;;;10.10;52.30;;;;;;5045125;28;20398;-77
2024/02/21 04:16:06;;;;;;;20.90;8.90;;;10.10;52.50;;;;;;5045448;28;20489;-76
2024/02/21 04:18:31;;;;;;;31.95;10.48;;;10.10;52.50;;;;;;5040860;28;20796;-77
2024/02/21 04:20:57;;;;;;;26.85;8.95;;;10.10;52.80;;;;;;5039807;28;20387;-77
2024/02/21 04:23:22;;;;;;;28.35;9.48;;;10.00;53.00;;;;;;5030059;28;20406;-76
2024/02/21 04:25:48;;;;;;;23.63;9.65;;;10.10;52.50;;;;;;5031420;28;20387;-77
2024/02/21 04:28:13;;;;;;;25.00;9.73;;;10.10;52.70;;;;;;5033614;28;20410;-78
2024/02/21 04:30:39;;;;;;;24.23;9.60;;;10.00;53.10;;;;;;5033242;28;20386;-76
2024/02/21 04:33:04;;;;;;;25.30;9.00;;;10.10;53.70;;;;;;5038558;28;20387;-76
2024/02/21 04:35:30;;;;;;;22.03;9.13;;;10.10;52.80;;;;;;5033947;28;20706;-76
2024/02/21 04:37:55;;;;;;;24.77;9.30;;;10.00;52.90;;;;;;5033646;28;20402;-77
2024/02/21 04:40:21;;;;;;;28.45;9.85;;;10.10;52.60;;;;;;5032146;28;20418;-78
2024/02/21 04:42:46;;;;;;;27.93;9.00;;;10.10;52.70;;;;;;5031153;28;20394;-76
2024/02/21 04:45:12;;;;;;;23.97;8.90;;;10.10;52.80;;;;;;5032795;28;20383;-77
2024/02/21 04:47:37;;;;;;;30.53;9.00;;;10.10;52.40;;;;;;5034815;28;20718;-76
2024/02/21 04:50:03;;;;;;;18.53;8.00;;;10.00;52.50;;;;;;5034519;28;20386;-76
2024/02/21 04:52:29;;;;;;;23.47;9.10;;;10.10;52.50;;;;;;5036821;28;20923;-76
2024/02/21 04:54:55;;;;;;;23.08;8.38;;;10.10;52.20;;;;;;5039493;28;20422;-78
2024/02/21 04:57:21;;;;;;;22.92;8.93;;;10.10;52.30;;;;;;5039906;28;20402;-73
2024/02/21 04:59:47;;;;;;;31.40;9.10;;;10.10;52.30;;;;;;5038600;28;20383;-77
2024/02/21 05:02:13;;;;;;;18.93;8.10;;;10.00;52.30;;;;;;5039534;28;20446;-73
2024/02/21 05:04:41;;;;;;;28.10;8.43;;;10.00;52.90;;;;;;5039438;28;20439;-77
2024/02/21 05:07:06;;;;;;;29.85;8.90;;;10.00;51.90;;;;;;5039676;28;20419;-78
2024/02/21 05:09:32;;;;;;;19.50;8.80;;;10.10;51.40;;;;;;5041019;28;20391;-75
2024/02/21 05:12:00;;;;;;;24.55;9.20;;;10.00;52.40;;;;;;5040005;28;20422;-77
2024/02/21 05:14:29;;;;;;;23.25;8.90;;;10.00;52.00;;;;;;5039851;28;20389;-77
2024/02/21 05:16:55;;;;;;;21.08;8.18;;;10.00;52.30;;;;;;5036664;28;20403;-78
2024/02/21 05:19:21;;;;;;;22.65;8.85;;;10.00;51.90;;;;;;5036367;28;20379;-78
2024/02/21 05:21:46;;;;;;;21.90;8.20;;;10.00;51.60;;;;;;5036401;28;20482;-77
2024/02/21 05:24:12;;;;;;;20.48;8.50;;;10.00;51.70;;;;;;5035402;28;20472;-78
2024/02/21 05:26:38;;;;;;;25.33;8.52;;;10.00;51.60;;;;;;5037717;28;20492;-77
2024/02/21 05:29:03;;;;;;;23.00;8.77;;;10.00;51.10;;;;;;5036607;28;20401;-77
2024/02/21 05:31:51;;;;;;;22.02;8.30;;;10.00;51.30;;;;;;5035261;28;20391;-79
2024/02/21 05:34:17;;;;;;;17.85;8.30;;;10.00;51.60;;;;;;5034175;28;20375;-75
2024/02/21 05:36:42;;;;;;;21.98;8.43;;;9.90;51.90;;;;;;5038215;28;20466;-76
2024/02/21 05:39:08;;;;;;;19.05;7.57;;;9.90;51.70;;;;;;5051164;28;20406;-77
2024/02/21 05:41:33;;;;;;;23.42;8.20;;;10.00;51.30;;;;;;5045076;28;20884;-76
2024/02/21 05:43:59;;;;;;;23.10;8.23;;;10.00;51.10;;;;;;5037826;28;20391;-77
2024/02/21 05:46:24;;;;;;;27.90;8.87;;;10.00;51.10;;;;;;5053093;28;20392;-76
2024/02/21 05:48:50;;;;;;;19.83;8.67;;;10.00;51.30;;;;;;5065016;28;20447;-74
2024/02/21 05:51:15;;;;;;;24.73;8.83;;;10.00;51.00;;;;;;5052805;28;20386;-76
2024/02/21 05:53:41;;;;;;;24.77;8.10;;;10.00;50.80;;;;;;5053332;28;20447;-75
2024/02/21 05:56:11;;;;;;;22.38;8.40;;;10.10;50.40;;;;;;5044062;28;20398;-74
2024/02/21 05:58:37;;;;;;;20.95;7.35;;;10.00;50.80;;;;;;5032021;28;20395;-75
2024/02/21 06:01:03;;;;;;;21.60;8.10;;;10.00;50.70;;;;;;5032358;28;20474;-76
2024/02/21 06:03:29;;;;;;;17.30;7.45;;;10.00;50.70;;;;;;5032451;28;20379;-76
2024/02/21 06:05:55;;;;;;;20.55;7.70;;;10.00;50.80;;;;;;5033076;28;20394;-73
2024/02/21 06:08:20;;;;;;;25.17;8.00;;;10.00;50.40;;;;;;5032454;28;20391;-75
2024/02/21 06:10:47;;;;;;;25.37;8.50;;;10.00;50.00;;;;;;5033249;28;20391;-74
2024/02/21 06:13:12;;;;;;;23.92;8.13;;;10.00;50.20;;;;;;5033401;28;20397;-73
2024/02/21 06:15:38;;;;;;;21.52;7.13;;;10.00;50.40;;;;;;5035438;28;20398;-75
2024/02/21 06:18:03;;;;;;;16.40;6.85;;;9.90;50.70;;;;;;5043096;28;20442;-75
2024/02/21 06:20:29;;;;;;;22.80;7.80;;;9.90;50.50;;;;;;5031638;28;20395;-75
2024/02/21 06:22:55;;;;;;;15.82;7.03;;;9.90;50.40;;;;;;5034611;28;20451;-74
2024/02/21 06:25:20;;;;;;;20.27;7.83;;;9.90;50.50;;;;;;5032268;28;20383;-74
2024/02/21 06:27:46;;;;;;;18.90;8.00;;;9.90;50.30;;;;;;5039615;28;20505;-71
2024/02/21 06:30:11;;;;;;;23.03;8.30;;;10.00;50.00;;;;;;5035972;28;20476;-73
2024/02/21 06:32:37;;;;;;;24.77;7.60;;;10.00;50.10;;;;;;5035989;28;20414;-76
2024/02/21 06:35:04;;;;;;;19.92;7.28;;;10.00;49.80;;;;;;5035357;28;20419;-77
2024/02/21 06:37:30;;;;;;;20.43;8.10;;;10.00;49.60;;;;;;5038776;28;20399;-77
2024/02/21 06:39:55;;;;;;;19.48;7.95;;;10.10;49.30;;;;;;5033431;28;20444;-76
2024/02/21 06:42:21;;;;;;;21.13;7.23;;;10.00;49.40;;;;;;5039297;28;20455;-77
2024/02/21 06:44:47;;;;;;;21.50;7.90;;;10.10;48.80;;;;;;5039046;28;20383;-76
2024/02/21 06:47:12;;;;;;;22.23;7.25;;;10.20;48.50;;;;;;5041147;28;20454;-78
2024/02/21 06:49:38;;;;;;;18.53;7.67;;;10.10;48.80;;;;;;5043534;28;20445;-76
2024/02/21 06:52:05;;;;;;;23.63;7.90;;;10.10;49.20;;;;;;5040717;28;20394;-77
2024/02/21 06:54:30;;;;;;;17.30;7.30;;;10.00;49.20;;;;;;5035763;28;20431;-77
2024/02/21 06:56:56;;;;;;;18.95;7.32;;;10.10;49.40;;;;;;5038088;28;20453;-77
2024/02/21 06:59:21;;;;;;;15.77;6.73;;;10.10;49.50;;;;;;5045081;28;20385;-77
2024/02/21 07:01:48;;;;;;;20.90;7.30;;;10.10;48.90;;;;;;5047759;28;20435;-76
2024/02/21 07:04:14;;;;;;;22.75;7.38;;;10.20;48.10;;;;;;5036831;28;20402;-77
2024/02/21 07:06:40;;;;;;;17.25;7.28;;;10.20;48.00;;;;;;5033518;28;20769;-76
2024/02/21 07:09:05;;;;;;;17.05;7.28;;;10.10;48.70;;;;;;5034353;28;20469;-77
2024/02/21 07:11:31;;;;;;;20.60;7.40;;;10.30;47.90;;;;;;5032453;28;20383;-76
2024/02/21 07:13:56;;;;;;;20.17;7.63;;;10.20;47.80;;;;;;5034600;28;20395;-78
2024/02/21 07:16:22;;;;;;;20.20;7.17;;;10.20;47.80;;;;;;5034367;28;20453;-76
2024/02/21 07:18:48;;;;;;;15.53;7.23;;;10.30;47.60;;;;;;5032570;28;20387;-77
2024/02/21 07:21:14;;;;;;;18.45;7.07;;;10.30;47.40;;;;;;5033095;28;20406;-75
2024/02/21 07:23:43;;;;;;;17.48;6.50;;;10.40;46.80;;;;;;5035281;28;20501;-76
2024/02/21 07:26:09;;;;;;;17.50;6.80;;;10.50;46.20;;;;;;5035242;28;20459;-78
2024/02/21 07:28:34;;;;;;;17.50;6.25;;;10.50;45.90;;;;;;5035901;28;20415;-77
2024/02/21 07:31:00;;;;;;;13.48;6.60;;;10.40;46.30;;;;;;5041904;28;20452;-76
2024/02/21 07:33:25;;;;;;;17.58;5.82;;;10.40;46.40;;;;;;5042637;28;20391;-77
2024/02/21 07:35:51;;;;;;;16.95;6.35;;;10.50;47.00;;;;;;5040607;28;20806;-77
2024/02/21 07:38:18;;;;;;;12.18;5.68;;;10.50;46.20;;;;;;5041120;28;20441;-76
2024/02/21 07:40:46;;;;;;;17.30;6.27;;;10.50;46.30;;;;;;5036513;28;20395;-78
2024/02/21 07:43:12;;;;;;;17.77;6.60;;;10.40;46.50;;;;;;5033162;28;20777;-74
2024/02/21 07:45:39;;;;;;;14.93;5.57;;;10.50;46.40;;;;;;5038331;28;20425;-79
2024/02/21 07:48:05;;;;;;;15.37;6.07;;;10.50;46.40;;;;;;5037602;28;20449;-78
2024/02/21 07:50:31;;;;;;;22.13;6.60;;;10.50;46.80;;;;;;5034221;28;20394;-77
2024/02/21 07:52:57;;;;;;;18.53;6.67;;;10.40;46.70;;;;;;5033519;28;20858;-77
2024/02/21 07:55:22;;;;;;;17.08;5.57;;;10.40;47.20;;;;;;5035045;28;20391;-77
2024/02/21 07:57:48;;;;;;;15.02;5.82;;;10.40;47.80;;;;;;5035566;28;20509;-76
2024/02/21 08:00:19;;;;;;;17.85;6.28;;;10.30;48.50;;;;;;5035815;28;20485;-77
2024/02/21 08:02:48;;;;;;;15.57;6.22;;;10.30;48.40;;;;;;5039072;28;20402;-78
2024/02/21 08:05:14;;;;;;;13.75;5.55;;;10.30;48.70;;;;;;5041927;28;20401;-78
2024/02/21 08:07:39;;;;;;;19.63;6.73;;;10.30;48.40;;;;;;5039568;28;20418;-77
2024/02/21 08:10:08;;;;;;;14.18;5.97;;;10.40;48.10;;;;;;5040970;28;20386;-78
2024/02/21 08:12:33;;;;;;;22.20;6.57;;;10.50;47.50;;;;;;5035746;28;20615;-76
2024/02/21 08:14:59;;;;;;;13.10;5.23;;;10.40;47.00;;;;;;5034980;28;20822;-77
2024/02/21 08:17:25;;;;;;;16.00;5.57;;;10.40;47.20;;;;;;5037565;28;20410;-75
2024/02/21 08:19:50;;;;;;;14.97;5.53;;;10.50;46.80;;;;;;5039845;28;20699;-74
2024/02/21 08:22:16;;;;;;;16.10;6.00;;;10.40;46.60;;;;;;5039297;28;20954;-77
2024/02/21 08:24:42;;;;;;;14.60;5.07;;;10.40;47.00;;;;;;5039530;28;20391;-78
2024/02/21 08:27:07;;;;;;;10.90;5.33;;;10.50;46.10;;;;;;5039562;28;20889;-77
2024/02/21 08:29:33;;;;;;;21.53;5.43;;;10.50;46.00;;;;;;5040889;28;20761;-76
2024/02/21 08:31:58;;;;;;;16.60;6.00;;;10.60;45.40;;;;;;5040082;28;20472;-78
2024/02/21 08:34:24;;;;;;;21.03;6.20;;;10.50;45.10;;;;;;5035059;28;20402;-76
2024/02/21 08:36:50;;;;;;;20.90;7.23;;;10.50;44.90;;;;;;5037657;28;20962;-77
2024/02/21 08:39:18;;;;;;;20.45;6.85;;;10.40;44.90;;;;;;5038444;28;20379;-77
2024/02/21 08:41:43;;;;;;;17.88;6.47;;;10.40;44.60;;;;;;5038333;28;20387;-77
2024/02/21 08:44:09;;;;;;;19.25;6.68;;;10.40;45.10;;;;;;5037339;28;20386;-77
2024/02/21 08:46:38;;;;;;;15.35;6.10;;;10.40;45.30;;;;;;5038429;28;20387;-76
2024/02/21 08:49:03;;;;;;;22.52;7.15;;;10.40;44.80;;;;;;5040997;28;20387;-76
2024/02/21 08:51:29;;;;;;;20.53;7.27;;;10.40;44.90;;;;;;5040039;28;20402;-79
2024/02/21 08:53:55;;;;;;;19.70;6.47;;;10.50;44.60;;;;;;5040237;28;20383;-77
2024/02/21 08:56:20;;;;;;;18.40;6.30;;;10.60;44.10;;;;;;5040063;28;20430;-79
2024/02/21 08:58:46;;;;;;;21.43;6.60;;;10.70;42.90;;;;;;5044008;28;20916;-78
2024/02/21 09:01:12;;;;;;;16.17;6.43;;;10.80;42.80;;;;;;5041952;28;20758;-77
2024/02/21 09:03:38;;;;;;;18.63;6.60;;;10.70;43.00;;;;;;5040658;28;20407;-77
2024/02/21 09:06:05;;;;;;;23.55;7.03;;;10.80;42.50;;;;;;5042961;28;20457;-77
2024/02/21 09:08:32;;;;;;;21.88;6.20;;;10.80;42.00;;;;;;5045020;28;20402;-76
2024/02/21 09:10:57;;;;;;;15.40;6.53;;;10.80;42.20;;;;;;5042638;28;20495;-76
2024/02/21 09:13:23;;;;;;;18.90;6.50;;;10.90;42.10;;;;;;5042137;28;20419;-77
2024/02/21 09:15:49;;;;;;;22.33;7.10;;;10.90;42.20;;;;;;5047304;28;20399;-77
2024/02/21 09:18:16;;;;;;;21.17;6.60;;;10.90;42.40;;;;;;5045386;28;20398;-77
2024/02/21 09:20:42;;;;;;;21.52;6.93;;;11.00;42.00;;;;;;5049524;28;20393;-76
2024/02/21 09:23:08;;;;;;;16.10;5.90;;;11.20;41.40;;;;;;5046529;28;20439;-76
2024/02/21 09:25:33;;;;;;;17.10;6.22;;;11.40;39.90;;;;;;5049230;28;20441;-78
2024/02/21 09:28:00;;;;;;;17.90;6.20;;;11.40;39.60;;;;;;5046897;28;20403;-78
2024/02/21 09:30:26;;;;;;;19.02;7.70;;;11.60;39.30;;;;;;5045534;28;20719;-77
2024/02/21 09:32:52;;;;;;;18.83;7.30;;;11.50;40.50;;;;;;5046730;28;20471;-77
2024/02/21 09:35:18;;;;;;;19.17;7.82;;;11.40;40.40;;;;;;5046875;28;20439;-77
2024/02/21 09:37:43;;;;;;;21.42;7.70;;;11.50;39.70;;;;;;5047969;28;20395;-74
2024/02/21 09:40:09;;;;;;;20.07;7.80;;;11.60;39.30;;;;;;5049640;28;20394;-77
2024/02/21 09:42:40;;;;;;;24.50;9.30;;;11.50;39.70;;;;;;5048231;28;20393;-77
2024/02/21 09:45:15;;;;;;;22.30;8.50;;;11.60;39.60;;;;;;5042281;28;20477;-76
2024/02/21 09:48:04;;;;;;;16.03;7.77;;;11.70;38.80;;;;;;5040150;28;20471;-76
2024/02/21 09:50:32;;;;;;;17.63;7.90;;;11.80;37.80;;;;;;5039642;28;20709;-77
2024/02/21 09:52:59;;;;;;;17.73;6.13;;;11.80;37.70;;;;;;5040124;28;20382;-78
2024/02/21 09:55:27;;;;;;;12.98;5.40;;;11.90;37.10;;;;;;5039939;28;20746;-77
2024/02/21 09:57:54;;;;;;;14.13;5.57;;;11.80;36.30;;;;;;5039113;28;20403;-77
2024/02/21 10:00:21;;;;;;;14.32;5.90;;;11.70;36.60;;;;;;5038357;28;20390;-77
2024/02/21 10:02:49;;;;;;;17.25;6.40;;;11.70;36.00;;;;;;5036751;28;20397;-77
2024/02/21 10:05:14;;;;;;;15.13;6.05;;;11.70;36.50;;;;;;5037246;28;20498;-78
2024/02/21 10:07:40;;;;;;;19.13;6.20;;;11.70;36.20;;;;;;5039260;28;20396;-76
2024/02/21 10:10:06;;;;;;;14.00;5.40;;;11.70;36.20;;;;;;5039355;28;20383;-78
2024/02/21 10:12:32;;;;;;;16.10;5.30;;;11.90;35.40;;;;;;5039027;28;20437;-78
2024/02/21 10:15:06;;;;;;;16.20;5.50;;;12.10;34.80;;;;;;5040421;28;20390;-76
2024/02/21 10:17:34;;;;;;;16.70;5.55;;;12.00;34.80;;;;;;5041277;28;20403;-77
2024/02/21 10:20:10;;;;;;;16.48;5.85;;;12.00;34.90;;;;;;5043806;28;20395;-79
2024/02/21 10:22:39;;;;;;;10.77;5.03;;;12.10;34.40;;;;;;5041191;28;21021;-76
2024/02/21 10:25:14;;;;;;;13.35;5.03;;;12.20;33.80;;;;;;5037030;28;20866;-75
2024/02/21 10:27:41;;;;;;;10.13;4.53;;;12.40;33.80;;;;;;5043778;28;20402;-77
2024/02/21 10:30:12;;;;;;;13.05;4.78;;;12.30;32.80;;;;;;5044595;28;20391;-77
2024/02/21 10:32:54;;;;;;;9.98;4.60;;;12.40;33.00;;;;;;5041855;28;20429;-78
2024/02/21 10:35:31;;;;;;;15.38;4.88;;;12.40;32.30;;;;;;5036981;28;20931;-78
2024/02/21 10:37:57;;;;;;;11.77;4.63;;;12.30;32.60;;;;;;5036622;28;20411;-78
2024/02/21 10:40:24;;;;;;;11.40;4.70;;;12.40;32.50;;;;;;5038337;28;20572;-76
2024/02/21 10:42:56;;;;;;;18.88;5.38;;;12.60;31.80;;;;;;5045432;28;20401;-76
2024/02/21 10:45:25;;;;;;;12.77;5.00;;;12.50;31.90;;;;;;5040123;28;20477;-77
2024/02/21 10:47:56;;;;;;;12.63;4.63;;;12.50;32.10;;;;;;5036323;28;20393;-75
2024/02/21 10:50:25;;;;;;;11.63;4.70;;;12.50;31.90;;;;;;5034566;28;20387;-76
2024/02/21 10:53:25;;;;;;;8.93;3.92;;;12.60;32.00;;;;;;5031975;28;20865;-75
2024/02/21 10:56:02;;;;;;;10.65;4.00;;;12.50;31.90;;;;;;5002438;28;20458;-76
2024/02/21 10:58:30;;;;;;;10.02;4.32;;;12.50;31.80;;;;;;5033188;28;20410;-75
2024/02/21 11:00:55;;;;;;;11.43;4.70;;;12.50;31.80;;;;;;5033443;28;20510;-75
2024/02/21 11:03:22;;;;;;;10.67;4.90;;;12.40;31.90;;;;;;5032691;28;20399;-76
2024/02/21 11:05:48;;;;;;;16.23;5.00;;;12.40;32.20;;;;;;5032530;28;20785;-77
2024/02/21 11:08:14;;;;;;;11.15;5.10;;;12.50;32.00;;;;;;5032171;28;20433;-78
2024/02/21 11:10:40;;;;;;;10.80;5.35;;;12.60;32.60;;;;;;5031937;28;20726;-77
2024/02/21 11:13:09;;;;;;;12.65;5.10;;;12.80;32.10;;;;;;5033936;28;20398;-75
2024/02/21 11:15:35;;;;;;;15.95;4.95;;;13.00;31.80;;;;;;5031920;28;20491;-76
2024/02/21 11:18:00;;;;;;;12.55;4.50;;;13.10;31.00;;;;;;5031307;28;20913;-74
2024/02/21 11:20:36;;;;;;;15.32;5.00;;;13.30;30.90;;;;;;5032072;28;20382;-74
2024/02/21 11:23:02;;;;;;;14.45;5.20;;;13.30;30.30;;;;;;5032000;28;20446;-74
2024/02/21 11:25:30;;;;;;;9.10;4.93;;;13.30;29.70;;;;;;5036312;28;20854;-74
2024/02/21 11:28:00;;;;;;;12.88;6.22;;;13.30;30.90;;;;;;5033462;28;21026;-74
2024/02/21 11:30:37;;;;;;;15.30;5.50;;;13.30;29.60;;;;;;5032014;28;20476;-75
2024/02/21 11:33:05;;;;;;;15.00;5.57;;;13.00;30.40;;;;;;5032329;28;20791;-74
2024/02/21 11:35:33;;;;;;;16.77;5.65;;;13.10;30.50;;;;;;5033088;28;20391;-74
2024/02/21 11:38:14;;;;;;;15.30;5.60;;;13.20;29.90;;;;;;5035692;28;20411;-74
2024/02/21 11:40:41;;;;;;;16.42;5.45;;;13.20;30.60;;;;;;5031586;28;20388;-75
2024/02/21 11:43:07;;;;;;;18.17;5.60;;;13.10;30.70;;;;;;5031628;28;20808;-77
2024/02/21 11:45:33;;;;;;;18.15;5.53;;;13.00;30.70;;;;;;5031411;28;20387;-75
2024/02/21 11:48:00;;;;;;;20.58;6.20;;;13.00;30.50;;;;;;5031781;28;20387;-76
2024/02/21 11:50:26;;;;;;;11.60;4.80;;;13.10;30.40;;;;;;5031320;28;20389;-74
2024/02/21 11:52:55;;;;;;;15.63;5.75;;;13.20;29.20;;;;;;5030952;28;20472;-74
2024/02/21 11:55:20;;;;;;;18.75;8.57;;;13.10;30.20;;;;;;5030774;28;20387;-75
2024/02/21 11:57:48;;;;;;;10.83;5.00;;;13.20;29.70;;;;;;5031318;28;20460;-75
2024/02/21 12:00:20;;;;;;;12.85;5.07;;;12.90;29.70;;;;;;5031255;28;20407;-76
2024/02/21 12:02:46;;;;;;;16.13;5.30;;;12.90;29.30;;;;;;5031105;28;20505;-75
2024/02/21 12:05:12;;;;;;;15.43;5.28;;;13.00;29.60;;;;;;5031211;28;20896;-76
2024/02/21 12:07:41;;;;;;;15.07;5.50;;;12.90;30.80;;;;;;5032040;28;20445;-74
2024/02/21 12:10:13;;;;;;;15.02;4.90;;;13.00;30.00;;;;;;5032071;28;20394;-77
2024/02/21 12:12:40;;;;;;;14.43;5.05;;;12.80;29.70;;;;;;5030536;28;20390;-74
2024/02/21 12:15:07;;;;;;;15.57;4.85;;;13.00;29.20;;;;;;5031085;28;20379;-76
2024/02/21 12:17:37;;;;;;;17.13;5.00;;;13.00;29.90;;;;;;5030976;28;20406;-75
2024/02/21 12:20:08;;;;;;;13.13;4.55;;;12.90;29.50;;;;;;5030914;28;20383;-75
2024/02/21 12:22:35;;;;;;;19.00;4.68;;;13.00;29.40;;;;;;5030341;28;20379;-76
2024/02/21 12:25:17;;;;;;;12.77;5.00;;;13.20;29.70;;;;;;5029628;28;20465;-76
2024/02/21 12:27:43;;;;;;;15.65;4.55;;;13.50;28.50;;;;;;5030450;28;20422;-75
2024/02/21 12:30:10;;;;;;;15.93;4.82;;;13.70;27.60;;;;;;5029918;28;20390;-76